aviador You're here:

SAZS Decoded Metar

SAN CARLOS DE BARILOCH in ARGENTINA
Report Time2018-05-27 01:00:00
UTC Time2018-05-27 01:25:05
Flight Rules vfr VFR
Wind290° at 09 kt
W.Decomp.*RWY 29: 8.9 kt HW 1.3 kt LCW
W.Rank290° ranks 2
Current wind is below 290° avg. (14.9)
Visibility9999 m
Phenomena:N/A
Clouds:Scattered 023 Hf
Scattered 036 Hf
Expected CloudBase > 1,200 ft AGL from Temp-Dew spread
CeilingNone
Temp05°C (ISA -5)
Dew Point02°C (81% RH)
AAT0.1°C
QNH1014 hPa
Density Alt2,283 ft
Elevation2,756 ft
Report Wrong Elevation
Raw Report
SAZS 270100Z 29009KT 9999 SCT023 SCT036 05/02 Q1014=

Extra information for SAZS:More info

Metar Taf Metar & Taf Last 4 Metars F.Rules Stats Wind Profile Meteogram Temp Stats Airport Information Weather charts Add Link Nearby VenuesMetar ALERT Operation Metar Decoded Social comments